sensor_id;sensor_type;location;lat;lon;timestamp;temperature;humidity
9271;DHT22;4673;53.458;9.940;2024-02-04T00:01:29;5.50;61.50
9271;DHT22;4673;53.458;9.940;2024-02-04T00:03:55;5.50;61.60
9271;DHT22;4673;53.458;9.940;2024-02-04T00:06:20;5.50;61.50
9271;DHT22;4673;53.458;9.940;2024-02-04T00:08:46;5.50;61.60
9271;DHT22;4673;53.458;9.940;2024-02-04T00:11:12;5.40;61.40
9271;DHT22;4673;53.458;9.940;2024-02-04T00:13:38;5.40;61.70
9271;DHT22;4673;53.458;9.940;2024-02-04T00:16:04;5.30;61.90
9271;DHT22;4673;53.458;9.940;2024-02-04T00:18:31;5.30;62.30
9271;DHT22;4673;53.458;9.940;2024-02-04T00:20:56;5.30;62.60
9271;DHT22;4673;53.458;9.940;2024-02-04T00:23:22;5.30;63.00
9271;DHT22;4673;53.458;9.940;2024-02-04T00:25:47;5.30;63.30
9271;DHT22;4673;53.458;9.940;2024-02-04T00:28:13;5.30;63.30
9271;DHT22;4673;53.458;9.940;2024-02-04T00:30:39;5.30;63.40
9271;DHT22;4673;53.458;9.940;2024-02-04T00:33:04;5.30;63.50
9271;DHT22;4673;53.458;9.940;2024-02-04T00:35:30;5.40;63.70
9271;DHT22;4673;53.458;9.940;2024-02-04T00:37:57;5.40;63.60
9271;DHT22;4673;53.458;9.940;2024-02-04T00:40:22;5.40;63.70
9271;DHT22;4673;53.458;9.940;2024-02-04T00:42:48;5.40;63.50
9271;DHT22;4673;53.458;9.940;2024-02-04T00:45:14;5.40;63.40
9271;DHT22;4673;53.458;9.940;2024-02-04T00:47:39;5.40;63.50
9271;DHT22;4673;53.458;9.940;2024-02-04T00:50:06;5.30;63.40
9271;DHT22;4673;53.458;9.940;2024-02-04T00:52:31;5.30;63.80
9271;DHT22;4673;53.458;9.940;2024-02-04T00:54:57;5.40;63.70
9271;DHT22;4673;53.458;9.940;2024-02-04T00:57:23;5.40;63.40
9271;DHT22;4673;53.458;9.940;2024-02-04T00:59:48;5.30;63.50
9271;DHT22;4673;53.458;9.940;2024-02-04T01:02:15;5.30;63.40
9271;DHT22;4673;53.458;9.940;2024-02-04T01:04:41;5.30;63.60
9271;DHT22;4673;53.458;9.940;2024-02-04T01:07:07;5.30;63.70
9271;DHT22;4673;53.458;9.940;2024-02-04T01:09:32;5.30;63.80
9271;DHT22;4673;53.458;9.940;2024-02-04T01:11:58;5.30;63.90
9271;DHT22;4673;53.458;9.940;2024-02-04T01:14:24;5.40;63.90
9271;DHT22;4673;53.458;9.940;2024-02-04T01:16:49;5.40;64.10
9271;DHT22;4673;53.458;9.940;2024-02-04T01:19:15;5.50;63.80
9271;DHT22;4673;53.458;9.940;2024-02-04T01:21:41;5.50;63.30
9271;DHT22;4673;53.458;9.940;2024-02-04T01:24:06;5.60;63.00
9271;DHT22;4673;53.458;9.940;2024-02-04T01:26:32;5.70;62.50
9271;DHT22;4673;53.458;9.940;2024-02-04T01:28:57;5.80;62.50
9271;DHT22;4673;53.458;9.940;2024-02-04T01:31:23;5.80;62.30
9271;DHT22;4673;53.458;9.940;2024-02-04T01:33:49;5.90;62.10
9271;DHT22;4673;53.458;9.940;2024-02-04T01:36:14;5.90;61.60
9271;DHT22;4673;53.458;9.940;2024-02-04T01:38:40;6.00;61.40
9271;DHT22;4673;53.458;9.940;2024-02-04T01:41:06;6.10;60.40
9271;DHT22;4673;53.458;9.940;2024-02-04T01:43:31;6.10;60.40
9271;DHT22;4673;53.458;9.940;2024-02-04T01:45:57;6.20;60.20
9271;DHT22;4673;53.458;9.940;2024-02-04T01:48:23;6.20;59.80
9271;DHT22;4673;53.458;9.940;2024-02-04T01:50:50;6.20;59.30
9271;DHT22;4673;53.458;9.940;2024-02-04T01:53:21;6.30;59.30
9271;DHT22;4673;53.458;9.940;2024-02-04T01:55:47;6.40;58.80
9271;DHT22;4673;53.458;9.940;2024-02-04T01:58:15;6.40;58.10
9271;DHT22;4673;53.458;9.940;2024-02-04T02:00:40;6.50;58.00
9271;DHT22;4673;53.458;9.940;2024-02-04T02:03:06;6.50;56.80
9271;DHT22;4673;53.458;9.940;2024-02-04T02:05:34;6.50;56.80
9271;DHT22;4673;53.458;9.940;2024-02-04T02:08:00;6.60;56.80
9271;DHT22;4673;53.458;9.940;2024-02-04T02:10:26;6.70;56.50
9271;DHT22;4673;53.458;9.940;2024-02-04T02:13:11;6.70;55.80
9271;DHT22;4673;53.458;9.940;2024-02-04T02:15:49;6.60;55.40
9271;DHT22;4673;53.458;9.940;2024-02-04T02:18:43;6.60;55.60
9271;DHT22;4673;53.458;9.940;2024-02-04T02:26:26;6.70;54.60
9271;DHT22;4673;53.458;9.940;2024-02-04T02:28:52;6.70;54.90
9271;DHT22;4673;53.458;9.940;2024-02-04T02:31:17;6.70;54.50
9271;DHT22;4673;53.458;9.940;2024-02-04T02:33:43;6.70;54.70
9271;DHT22;4673;53.458;9.940;2024-02-04T02:36:14;6.70;54.80
9271;DHT22;4673;53.458;9.940;2024-02-04T02:38:49;6.60;54.50
9271;DHT22;4673;53.458;9.940;2024-02-04T02:41:19;6.40;54.60
9271;DHT22;4673;53.458;9.940;2024-02-04T02:43:46;6.40;55.20
9271;DHT22;4673;53.458;9.940;2024-02-04T02:46:13;6.30;55.50
9271;DHT22;4673;53.458;9.940;2024-02-04T02:48:39;6.20;55.60
9271;DHT22;4673;53.458;9.940;2024-02-04T02:51:05;6.10;55.80
9271;DHT22;4673;53.458;9.940;2024-02-04T02:53:31;6.00;56.10
9271;DHT22;4673;53.458;9.940;2024-02-04T02:55:56;6.00;56.50
9271;DHT22;4673;53.458;9.940;2024-02-04T02:58:22;5.90;57.00
9271;DHT22;4673;53.458;9.940;2024-02-04T03:00:47;5.90;57.10
9271;DHT22;4673;53.458;9.940;2024-02-04T03:03:13;5.90;57.50
9271;DHT22;4673;53.458;9.940;2024-02-04T03:05:39;5.90;57.60
9271;DHT22;4673;53.458;9.940;2024-02-04T03:08:05;5.80;57.70
9271;DHT22;4673;53.458;9.940;2024-02-04T03:10:31;5.80;57.90
9271;DHT22;4673;53.458;9.940;2024-02-04T03:12:56;5.80;58.00
9271;DHT22;4673;53.458;9.940;2024-02-04T03:15:22;5.70;58.10
9271;DHT22;4673;53.458;9.940;2024-02-04T03:17:47;5.70;58.40
9271;DHT22;4673;53.458;9.940;2024-02-04T03:20:13;5.80;58.30
9271;DHT22;4673;53.458;9.940;2024-02-04T03:22:39;5.70;58.50
9271;DHT22;4673;53.458;9.940;2024-02-04T03:25:05;5.70;58.70
9271;DHT22;4673;53.458;9.940;2024-02-04T03:27:30;5.60;58.60
9271;DHT22;4673;53.458;9.940;2024-02-04T03:29:56;5.60;59.00
9271;DHT22;4673;53.458;9.940;2024-02-04T03:32:22;5.60;59.10
9271;DHT22;4673;53.458;9.940;2024-02-04T03:34:47;5.60;59.10
9271;DHT22;4673;53.458;9.940;2024-02-04T03:37:13;5.60;59.20
9271;DHT22;4673;53.458;9.940;2024-02-04T03:39:38;5.60;59.40
9271;DHT22;4673;53.458;9.940;2024-02-04T03:42:04;5.60;59.40
9271;DHT22;4673;53.458;9.940;2024-02-04T03:44:30;5.50;59.30
9271;DHT22;4673;53.458;9.940;2024-02-04T03:46:55;5.50;59.70
9271;DHT22;4673;53.458;9.940;2024-02-04T03:49:21;5.50;59.90
9271;DHT22;4673;53.458;9.940;2024-02-04T03:51:47;5.50;60.00
9271;DHT22;4673;53.458;9.940;2024-02-04T03:54:13;5.40;60.00
9271;DHT22;4673;53.458;9.940;2024-02-04T03:56:38;5.40;60.10
9271;DHT22;4673;53.458;9.940;2024-02-04T03:59:04;5.40;60.30
9271;DHT22;4673;53.458;9.940;2024-02-04T04:01:31;5.40;60.60
9271;DHT22;4673;53.458;9.940;2024-02-04T04:03:57;5.30;60.60
9271;DHT22;4673;53.458;9.940;2024-02-04T04:06:23;5.40;60.90
9271;DHT22;4673;53.458;9.940;2024-02-04T04:08:48;5.30;61.00
9271;DHT22;4673;53.458;9.940;2024-02-04T04:11:14;5.30;61.20
9271;DHT22;4673;53.458;9.940;2024-02-04T04:13:40;5.30;61.70
9271;DHT22;4673;53.458;9.940;2024-02-04T04:16:06;5.30;62.00
9271;DHT22;4673;53.458;9.940;2024-02-04T04:18:31;5.20;62.20
9271;DHT22;4673;53.458;9.940;2024-02-04T04:20:57;5.20;62.50
9271;DHT22;4673;53.458;9.940;2024-02-04T04:23:23;5.20;62.90
9271;DHT22;4673;53.458;9.940;2024-02-04T04:25:48;5.20;63.10
9271;DHT22;4673;53.458;9.940;2024-02-04T04:28:14;5.20;63.50
9271;DHT22;4673;53.458;9.940;2024-02-04T04:30:40;5.30;64.10
9271;DHT22;4673;53.458;9.940;2024-02-04T04:33:05;5.30;64.20
9271;DHT22;4673;53.458;9.940;2024-02-04T04:35:31;5.30;64.30
9271;DHT22;4673;53.458;9.940;2024-02-04T04:37:57;5.30;64.80
9271;DHT22;4673;53.458;9.940;2024-02-04T04:40:23;5.30;64.80
9271;DHT22;4673;53.458;9.940;2024-02-04T04:42:49;5.30;64.80
9271;DHT22;4673;53.458;9.940;2024-02-04T04:45:14;5.40;64.90
9271;DHT22;4673;53.458;9.940;2024-02-04T04:47:40;5.30;64.90
9271;DHT22;4673;53.458;9.940;2024-02-04T04:50:06;5.20;64.90
9271;DHT22;4673;53.458;9.940;2024-02-04T04:52:32;5.20;65.30
9271;DHT22;4673;53.458;9.940;2024-02-04T04:54:58;5.20;65.80
9271;DHT22;4673;53.458;9.940;2024-02-04T04:57:24;5.30;66.00
9271;DHT22;4673;53.458;9.940;2024-02-04T04:59:49;5.20;65.80
9271;DHT22;4673;53.458;9.940;2024-02-04T05:02:15;5.20;66.00
9271;DHT22;4673;53.458;9.940;2024-02-04T05:04:44;5.20;66.10
9271;DHT22;4673;53.458;9.940;2024-02-04T05:07:10;5.20;66.20
9271;DHT22;4673;53.458;9.940;2024-02-04T05:09:36;5.20;66.30
9271;DHT22;4673;53.458;9.940;2024-02-04T05:12:03;5.20;66.50
9271;DHT22;4673;53.458;9.940;2024-02-04T05:14:28;5.20;66.60
9271;DHT22;4673;53.458;9.940;2024-02-04T05:16:54;5.10;66.80
9271;DHT22;4673;53.458;9.940;2024-02-04T05:19:20;5.20;66.90
9271;DHT22;4673;53.458;9.940;2024-02-04T05:21:45;5.20;66.80
9271;DHT22;4673;53.458;9.940;2024-02-04T05:24:11;5.20;66.90
9271;DHT22;4673;53.458;9.940;2024-02-04T05:26:36;5.10;66.90
9271;DHT22;4673;53.458;9.940;2024-02-04T05:29:02;5.10;67.00
9271;DHT22;4673;53.458;9.940;2024-02-04T05:31:28;5.20;66.90
9271;DHT22;4673;53.458;9.940;2024-02-04T05:33:53;5.10;67.00
9271;DHT22;4673;53.458;9.940;2024-02-04T05:36:19;5.10;67.00
9271;DHT22;4673;53.458;9.940;2024-02-04T05:38:45;5.10;66.90
9271;DHT22;4673;53.458;9.940;2024-02-04T05:41:11;5.10;66.90
9271;DHT22;4673;53.458;9.940;2024-02-04T05:43:37;5.10;66.90
9271;DHT22;4673;53.458;9.940;2024-02-04T05:46:04;5.10;66.70
9271;DHT22;4673;53.458;9.940;2024-02-04T05:48:29;5.10;66.80
9271;DHT22;4673;53.458;9.940;2024-02-04T05:50:55;5.20;66.90
9271;DHT22;4673;53.458;9.940;2024-02-04T05:53:20;5.10;66.70
9271;DHT22;4673;53.458;9.940;2024-02-04T05:55:46;5.30;66.80
9271;DHT22;4673;53.458;9.940;2024-02-04T05:58:12;5.10;66.70
9271;DHT22;4673;53.458;9.940;2024-02-04T06:00:39;5.10;66.90
9271;DHT22;4673;53.458;9.940;2024-02-04T06:03:05;5.10;66.70
9271;DHT22;4673;53.458;9.940;2024-02-04T06:05:31;5.20;66.70
9271;DHT22;4673;53.458;9.940;2024-02-04T06:07:56;5.10;66.70
9271;DHT22;4673;53.458;9.940;2024-02-04T06:10:22;5.20;66.30
9271;DHT22;4673;53.458;9.940;2024-02-04T06:12:48;5.20;66.60
9271;DHT22;4673;53.458;9.940;2024-02-04T06:15:14;5.20;66.60
9271;DHT22;4673;53.458;9.940;2024-02-04T06:17:40;5.20;66.30
9271;DHT22;4673;53.458;9.940;2024-02-04T06:20:06;5.20;66.30
9271;DHT22;4673;53.458;9.940;2024-02-04T06:22:34;5.20;66.00
9271;DHT22;4673;53.458;9.940;2024-02-04T06:25:00;5.20;66.20
9271;DHT22;4673;53.458;9.940;2024-02-04T06:27:25;5.20;65.90
9271;DHT22;4673;53.458;9.940;2024-02-04T06:29:51;5.40;65.90
9271;DHT22;4673;53.458;9.940;2024-02-04T06:32:16;5.30;66.00
9271;DHT22;4673;53.458;9.940;2024-02-04T06:34:46;5.30;65.90
9271;DHT22;4673;53.458;9.940;2024-02-04T06:37:11;5.30;65.50
9271;DHT22;4673;53.458;9.940;2024-02-04T06:39:37;5.30;65.40
9271;DHT22;4673;53.458;9.940;2024-02-04T06:42:03;5.30;64.90
9271;DHT22;4673;53.458;9.940;2024-02-04T06:44:29;5.30;64.70
9271;DHT22;4673;53.458;9.940;2024-02-04T06:46:55;5.30;65.00
9271;DHT22;4673;53.458;9.940;2024-02-04T06:49:20;5.30;65.00
9271;DHT22;4673;53.458;9.940;2024-02-04T06:51:46;5.40;64.70
9271;DHT22;4673;53.458;9.940;2024-02-04T06:54:13;5.30;64.40
9271;DHT22;4673;53.458;9.940;2024-02-04T06:56:39;5.30;64.50
9271;DHT22;4673;53.458;9.940;2024-02-04T06:59:04;5.30;64.50
9271;DHT22;4673;53.458;9.940;2024-02-04T07:01:30;5.30;64.40
9271;DHT22;4673;53.458;9.940;2024-02-04T07:03:56;5.30;64.30
9271;DHT22;4673;53.458;9.940;2024-02-04T07:06:21;5.30;64.30
9271;DHT22;4673;53.458;9.940;2024-02-04T07:08:47;5.30;64.20
9271;DHT22;4673;53.458;9.940;2024-02-04T07:11:13;5.30;64.30
9271;DHT22;4673;53.458;9.940;2024-02-04T07:13:38;5.40;64.30
9271;DHT22;4673;53.458;9.940;2024-02-04T07:16:04;5.40;64.00
9271;DHT22;4673;53.458;9.940;2024-02-04T07:18:30;5.40;63.90
9271;DHT22;4673;53.458;9.940;2024-02-04T07:20:56;5.40;63.80
9271;DHT22;4673;53.458;9.940;2024-02-04T07:23:22;5.50;63.70
9271;DHT22;4673;53.458;9.940;2024-02-04T07:25:48;5.50;63.60
9271;DHT22;4673;53.458;9.940;2024-02-04T07:28:14;5.50;63.10
9271;DHT22;4673;53.458;9.940;2024-02-04T07:30:39;5.50;63.00
9271;DHT22;4673;53.458;9.940;2024-02-04T07:33:05;5.50;63.10
9271;DHT22;4673;53.458;9.940;2024-02-04T07:35:31;5.60;62.90
9271;DHT22;4673;53.458;9.940;2024-02-04T07:37:57;5.60;62.50
9271;DHT22;4673;53.458;9.940;2024-02-04T07:40:23;5.70;62.60
9271;DHT22;4673;53.458;9.940;2024-02-04T07:42:48;5.70;61.90
9271;DHT22;4673;53.458;9.940;2024-02-04T07:45:14;5.70;61.80
9271;DHT22;4673;53.458;9.940;2024-02-04T07:47:40;5.70;61.70
9271;DHT22;4673;53.458;9.940;2024-02-04T07:50:07;5.70;61.70
9271;DHT22;4673;53.458;9.940;2024-02-04T07:52:33;5.70;61.40
9271;DHT22;4673;53.458;9.940;2024-02-04T07:54:58;5.80;61.30
9271;DHT22;4673;53.458;9.940;2024-02-04T07:57:24;5.80;60.80
9271;DHT22;4673;53.458;9.940;2024-02-04T07:59:49;5.90;61.00
9271;DHT22;4673;53.458;9.940;2024-02-04T08:02:15;5.90;60.40
9271;DHT22;4673;53.458;9.940;2024-02-04T08:04:41;5.90;60.50
9271;DHT22;4673;53.458;9.940;2024-02-04T08:07:07;6.00;60.30
9271;DHT22;4673;53.458;9.940;2024-02-04T08:09:32;6.00;60.30
9271;DHT22;4673;53.458;9.940;2024-02-04T08:11:58;6.10;60.10
9271;DHT22;4673;53.458;9.940;2024-02-04T08:14:23;6.20;59.70
9271;DHT22;4673;53.458;9.940;2024-02-04T08:16:49;6.20;59.00
9271;DHT22;4673;53.458;9.940;2024-02-04T08:19:16;6.20;59.20
9271;DHT22;4673;53.458;9.940;2024-02-04T08:21:42;6.20;58.30
9271;DHT22;4673;53.458;9.940;2024-02-04T08:24:08;6.30;58.50
9271;DHT22;4673;53.458;9.940;2024-02-04T08:26:34;6.30;58.10
9271;DHT22;4673;53.458;9.940;2024-02-04T08:29:00;6.40;57.50
9271;DHT22;4673;53.458;9.940;2024-02-04T08:31:25;6.40;57.90
9271;DHT22;4673;53.458;9.940;2024-02-04T08:33:51;6.40;57.50
9271;DHT22;4673;53.458;9.940;2024-02-04T08:36:18;6.10;57.20
9271;DHT22;4673;53.458;9.940;2024-02-04T08:38:44;6.40;57.30
9271;DHT22;4673;53.458;9.940;2024-02-04T08:41:09;6.50;56.80
9271;DHT22;4673;53.458;9.940;2024-02-04T08:43:35;6.60;57.00
9271;DHT22;4673;53.458;9.940;2024-02-04T08:46:00;6.50;55.50
9271;DHT22;4673;53.458;9.940;2024-02-04T08:48:26;6.60;55.90
9271;DHT22;4673;53.458;9.940;2024-02-04T08:50:52;6.60;56.00
9271;DHT22;4673;53.458;9.940;2024-02-04T08:53:20;6.70;55.30
9271;DHT22;4673;53.458;9.940;2024-02-04T08:55:46;6.70;55.70
9271;DHT22;4673;53.458;9.940;2024-02-04T08:58:11;6.70;54.50
9271;DHT22;4673;53.458;9.940;2024-02-04T09:00:37;6.80;55.30
9271;DHT22;4673;53.458;9.940;2024-02-04T09:03:03;6.90;55.50
9271;DHT22;4673;53.458;9.940;2024-02-04T09:05:28;7.00;55.00
9271;DHT22;4673;53.458;9.940;2024-02-04T09:07:54;7.20;54.70
9271;DHT22;4673;53.458;9.940;2024-02-04T09:10:21;7.10;53.20
9271;DHT22;4673;53.458;9.940;2024-02-04T09:12:47;7.20;53.40
9271;DHT22;4673;53.458;9.940;2024-02-04T09:15:12;7.30;53.60
9271;DHT22;4673;53.458;9.940;2024-02-04T09:17:38;7.30;52.70
9271;DHT22;4673;53.458;9.940;2024-02-04T09:20:04;7.30;52.40
9271;DHT22;4673;53.458;9.940;2024-02-04T09:22:30;7.30;52.20
9271;DHT22;4673;53.458;9.940;2024-02-04T09:24:56;7.30;52.70
9271;DHT22;4673;53.458;9.940;2024-02-04T09:27:21;7.30;52.60
9271;DHT22;4673;53.458;9.940;2024-02-04T09:29:47;7.30;51.90
9271;DHT22;4673;53.458;9.940;2024-02-04T09:32:13;7.40;52.20
9271;DHT22;4673;53.458;9.940;2024-02-04T09:34:38;7.30;51.20
9271;DHT22;4673;53.458;9.940;2024-02-04T09:37:04;7.20;51.50
9271;DHT22;4673;53.458;9.940;2024-02-04T09:39:30;7.30;51.60
9271;DHT22;4673;53.458;9.940;2024-02-04T09:41:55;7.40;51.20
9271;DHT22;4673;53.458;9.940;2024-02-04T09:44:23;7.40;51.20
9271;DHT22;4673;53.458;9.940;2024-02-04T09:46:48;7.50;51.20
9271;DHT22;4673;53.458;9.940;2024-02-04T09:49:14;7.60;50.80
9271;DHT22;4673;53.458;9.940;2024-02-04T09:51:40;7.70;50.30
9271;DHT22;4673;53.458;9.940;2024-02-04T09:54:10;7.80;49.80
9271;DHT22;4673;53.458;9.940;2024-02-04T09:56:37;7.70;49.60
9271;DHT22;4673;53.458;9.940;2024-02-04T09:59:04;7.80;48.50
9271;DHT22;4673;53.458;9.940;2024-02-04T10:01:31;7.70;48.90
9271;DHT22;4673;53.458;9.940;2024-02-04T10:03:57;7.70;48.80
9271;DHT22;4673;53.458;9.940;2024-02-04T10:06:24;7.70;48.40
9271;DHT22;4673;53.458;9.940;2024-02-04T10:08:49;7.60;47.70
9271;DHT22;4673;53.458;9.940;2024-02-04T10:11:15;7.70;48.10
9271;DHT22;4673;53.458;9.940;2024-02-04T10:13:49;7.60;48.00
9271;DHT22;4673;53.458;9.940;2024-02-04T10:16:15;7.50;47.80
9271;DHT22;4673;53.458;9.940;2024-02-04T10:18:42;7.50;48.30
9271;DHT22;4673;53.458;9.940;2024-02-04T10:21:18;7.40;48.20
9271;DHT22;4673;53.458;9.940;2024-02-04T10:23:48;7.50;48.60
9271;DHT22;4673;53.458;9.940;2024-02-04T10:26:15;7.60;48.60
9271;DHT22;4673;53.458;9.940;2024-02-04T10:28:40;7.60;48.20
9271;DHT22;4673;53.458;9.940;2024-02-04T10:31:09;7.70;47.70
9271;DHT22;4673;53.458;9.940;2024-02-04T10:33:35;7.80;47.70
9271;DHT22;4673;53.458;9.940;2024-02-04T10:36:01;7.80;47.20
9271;DHT22;4673;53.458;9.940;2024-02-04T10:38:27;7.90;46.90
9271;DHT22;4673;53.458;9.940;2024-02-04T10:40:54;7.80;46.50
9271;DHT22;4673;53.458;9.940;2024-02-04T10:43:21;7.80;46.90
9271;DHT22;4673;53.458;9.940;2024-02-04T10:45:47;7.90;46.50
9271;DHT22;4673;53.458;9.940;2024-02-04T10:48:15;7.90;46.80
9271;DHT22;4673;53.458;9.940;2024-02-04T10:50:46;7.90;46.60
9271;DHT22;4673;53.458;9.940;2024-02-04T10:53:14;8.00;45.70
9271;DHT22;4673;53.458;9.940;2024-02-04T10:55:41;8.00;45.40
9271;DHT22;4673;53.458;9.940;2024-02-04T10:58:12;7.90;45.00
9271;DHT22;4673;53.458;9.940;2024-02-04T11:00:40;7.90;45.70
9271;DHT22;4673;53.458;9.940;2024-02-04T11:03:06;7.90;45.30
9271;DHT22;4673;53.458;9.940;2024-02-04T11:05:34;8.10;45.80
9271;DHT22;4673;53.458;9.940;2024-02-04T11:08:02;7.90;45.10
9271;DHT22;4673;53.458;9.940;2024-02-04T11:10:30;7.90;45.40
9271;DHT22;4673;53.458;9.940;2024-02-04T11:12:57;8.20;45.50
9271;DHT22;4673;53.458;9.940;2024-02-04T11:15:28;8.00;45.80
9271;DHT22;4673;53.458;9.940;2024-02-04T11:24:09;8.20;45.10
9271;DHT22;4673;53.458;9.940;2024-02-04T11:26:41;8.20;44.80
9271;DHT22;4673;53.458;9.940;2024-02-04T11:29:09;8.30;44.00
9271;DHT22;4673;53.458;9.940;2024-02-04T11:31:38;8.20;44.10
9271;DHT22;4673;53.458;9.940;2024-02-04T11:34:08;8.30;44.50
9271;DHT22;4673;53.458;9.940;2024-02-04T11:36:38;8.40;44.00
9271;DHT22;4673;53.458;9.940;2024-02-04T11:39:17;8.50;43.00
9271;DHT22;4673;53.458;9.940;2024-02-04T11:41:47;8.60;42.80
9271;DHT22;4673;53.458;9.940;2024-02-04T11:44:19;8.60;42.50
9271;DHT22;4673;53.458;9.940;2024-02-04T11:46:48;8.60;41.80
9271;DHT22;4673;53.458;9.940;2024-02-04T11:49:17;8.50;42.00
9271;DHT22;4673;53.458;9.940;2024-02-04T11:51:50;8.50;42.50
9271;DHT22;4673;53.458;9.940;2024-02-04T11:54:17;8.60;42.60
9271;DHT22;4673;53.458;9.940;2024-02-04T11:56:45;8.60;42.00
9271;DHT22;4673;53.458;9.940;2024-02-04T11:59:12;8.50;42.20
9271;DHT22;4673;53.458;9.940;2024-02-04T12:01:39;8.60;42.70
9271;DHT22;4673;53.458;9.940;2024-02-04T12:04:16;8.60;41.60
9271;DHT22;4673;53.458;9.940;2024-02-04T12:06:42;8.50;42.20
9271;DHT22;4673;53.458;9.940;2024-02-04T12:09:08;8.40;41.50
9271;DHT22;4673;53.458;9.940;2024-02-04T12:11:35;8.50;42.40
9271;DHT22;4673;53.458;9.940;2024-02-04T12:14:03;8.60;42.00
9271;DHT22;4673;53.458;9.940;2024-02-04T12:16:31;8.60;41.50
9271;DHT22;4673;53.458;9.940;2024-02-04T12:18:58;8.70;42.00
9271;DHT22;4673;53.458;9.940;2024-02-04T12:21:24;8.80;41.10
9271;DHT22;4673;53.458;9.940;2024-02-04T12:23:51;8.80;40.80
9271;DHT22;4673;53.458;9.940;2024-02-04T12:26:17;8.80;40.90
9271;DHT22;4673;53.458;9.940;2024-02-04T12:28:43;8.70;41.60
9271;DHT22;4673;53.458;9.940;2024-02-04T12:31:19;8.70;41.30
9271;DHT22;4673;53.458;9.940;2024-02-04T12:33:56;8.80;41.00
9271;DHT22;4673;53.458;9.940;2024-02-04T12:36:27;8.80;40.70
9271;DHT22;4673;53.458;9.940;2024-02-04T12:38:54;8.80;40.80
9271;DHT22;4673;53.458;9.940;2024-02-04T12:41:21;8.80;40.90
9271;DHT22;4673;53.458;9.940;2024-02-04T12:43:58;8.80;40.60
9271;DHT22;4673;53.458;9.940;2024-02-04T12:46:24;8.50;40.30
9271;DHT22;4673;53.458;9.940;2024-02-04T12:48:55;8.50;41.50
9271;DHT22;4673;53.458;9.940;2024-02-04T12:51:27;8.50;41.30
9271;DHT22;4673;53.458;9.940;2024-02-04T12:54:25;8.50;41.40
9271;DHT22;4673;53.458;9.940;2024-02-04T12:56:54;8.60;41.70
9271;DHT22;4673;53.458;9.940;2024-02-04T12:59:31;8.50;41.50
9271;DHT22;4673;53.458;9.940;2024-02-04T13:02:07;8.50;41.90
9271;DHT22;4673;53.458;9.940;2024-02-04T13:04:37;8.50;41.90
9271;DHT22;4673;53.458;9.940;2024-02-04T13:07:07;8.60;42.00
9271;DHT22;4673;53.458;9.940;2024-02-04T13:09:37;8.60;41.50
9271;DHT22;4673;53.458;9.940;2024-02-04T13:12:07;8.50;41.10
9271;DHT22;4673;53.458;9.940;2024-02-04T13:14:34;8.50;42.00
9271;DHT22;4673;53.458;9.940;2024-02-04T13:17:00;8.50;41.60
9271;DHT22;4673;53.458;9.940;2024-02-04T13:19:35;8.60;42.10
9271;DHT22;4673;53.458;9.940;2024-02-04T13:22:05;8.60;41.30
9271;DHT22;4673;53.458;9.940;2024-02-04T13:24:32;8.60;41.70
9271;DHT22;4673;53.458;9.940;2024-02-04T13:26:57;8.60;41.70
9271;DHT22;4673;53.458;9.940;2024-02-04T13:29:24;8.60;42.00
9271;DHT22;4673;53.458;9.940;2024-02-04T13:31:50;8.50;41.30
9271;DHT22;4673;53.458;9.940;2024-02-04T13:34:15;8.50;41.80
9271;DHT22;4673;53.458;9.940;2024-02-04T13:36:42;8.50;41.80
9271;DHT22;4673;53.458;9.940;2024-02-04T13:39:08;8.40;41.50
9271;DHT22;4673;53.458;9.940;2024-02-04T13:41:36;8.50;42.30
9271;DHT22;4673;53.458;9.940;2024-02-04T13:44:02;8.40;41.90
9271;DHT22;4673;53.458;9.940;2024-02-04T13:46:28;8.40;42.10
9271;DHT22;4673;53.458;9.940;2024-02-04T13:48:53;8.50;42.20
9271;DHT22;4673;53.458;9.940;2024-02-04T13:51:19;8.50;42.20
9271;DHT22;4673;53.458;9.940;2024-02-04T13:53:44;8.50;42.50
9271;DHT22;4673;53.458;9.940;2024-02-04T13:56:11;8.50;42.10
9271;DHT22;4673;53.458;9.940;2024-02-04T13:58:37;8.50;42.20
9271;DHT22;4673;53.458;9.940;2024-02-04T14:01:02;8.50;42.00
9271;DHT22;4673;53.458;9.940;2024-02-04T14:03:28;8.50;42.30
9271;DHT22;4673;53.458;9.940;2024-02-04T14:05:54;8.40;42.40
9271;DHT22;4673;53.458;9.940;2024-02-04T14:08:21;8.50;41.50
9271;DHT22;4673;53.458;9.940;2024-02-04T14:10:47;8.40;42.00
9271;DHT22;4673;53.458;9.940;2024-02-04T14:13:12;8.40;42.30
9271;DHT22;4673;53.458;9.940;2024-02-04T14:15:38;8.40;42.30
9271;DHT22;4673;53.458;9.940;2024-02-04T14:18:04;8.40;42.10
9271;DHT22;4673;53.458;9.940;2024-02-04T14:20:31;8.40;42.20
9271;DHT22;4673;53.458;9.940;2024-02-04T14:22:56;8.40;42.40
9271;DHT22;4673;53.458;9.940;2024-02-04T14:25:23;8.40;42.50
9271;DHT22;4673;53.458;9.940;2024-02-04T14:27:50;8.40;42.60
9271;DHT22;4673;53.458;9.940;2024-02-04T14:30:15;8.40;42.30
9271;DHT22;4673;53.458;9.940;2024-02-04T14:32:41;8.40;42.60
9271;DHT22;4673;53.458;9.940;2024-02-04T14:35:08;8.40;42.40
9271;DHT22;4673;53.458;9.940;2024-02-04T14:37:35;8.40;42.70
9271;DHT22;4673;53.458;9.940;2024-02-04T14:40:03;8.40;42.60
9271;DHT22;4673;53.458;9.940;2024-02-04T14:42:29;8.40;42.70
9271;DHT22;4673;53.458;9.940;2024-02-04T14:44:55;8.40;42.40
9271;DHT22;4673;53.458;9.940;2024-02-04T14:47:21;8.30;42.50
9271;DHT22;4673;53.458;9.940;2024-02-04T14:49:47;8.30;43.00
9271;DHT22;4673;53.458;9.940;2024-02-04T14:52:12;8.30;43.10
9271;DHT22;4673;53.458;9.940;2024-02-04T14:54:38;8.30;43.50
9271;DHT22;4673;53.458;9.940;2024-02-04T14:57:05;8.30;43.60
9271;DHT22;4673;53.458;9.940;2024-02-04T14:59:31;8.20;44.20
9271;DHT22;4673;53.458;9.940;2024-02-04T15:02:03;8.30;45.10
9271;DHT22;4673;53.458;9.940;2024-02-04T15:04:30;8.30;46.00
9271;DHT22;4673;53.458;9.940;2024-02-04T15:06:58;8.30;45.50
9271;DHT22;4673;53.458;9.940;2024-02-04T15:09:23;8.30;46.40
9271;DHT22;4673;53.458;9.940;2024-02-04T15:11:49;8.20;46.60
9271;DHT22;4673;53.458;9.940;2024-02-04T15:14:15;8.10;46.50
9271;DHT22;4673;53.458;9.940;2024-02-04T15:16:42;8.10;46.80
9271;DHT22;4673;53.458;9.940;2024-02-04T15:19:08;8.00;48.00
9271;DHT22;4673;53.458;9.940;2024-02-04T15:21:35;8.00;49.00
9271;DHT22;4673;53.458;9.940;2024-02-04T15:24:01;8.00;49.70
9271;DHT22;4673;53.458;9.940;2024-02-04T15:26:33;8.00;50.10
9271;DHT22;4673;53.458;9.940;2024-02-04T15:29:02;7.90;50.60
9271;DHT22;4673;53.458;9.940;2024-02-04T15:31:29;8.00;51.60
9271;DHT22;4673;53.458;9.940;2024-02-04T15:33:55;7.90;53.40
9271;DHT22;4673;53.458;9.940;2024-02-04T15:36:21;7.80;54.20
9271;DHT22;4673;53.458;9.940;2024-02-04T15:38:47;7.80;55.40
9271;DHT22;4673;53.458;9.940;2024-02-04T15:41:13;7.70;56.00
9271;DHT22;4673;53.458;9.940;2024-02-04T15:43:38;7.70;56.40
9271;DHT22;4673;53.458;9.940;2024-02-04T15:46:08;7.60;57.00
9271;DHT22;4673;53.458;9.940;2024-02-04T15:48:38;7.60;58.20
9271;DHT22;4673;53.458;9.940;2024-02-04T15:51:05;7.50;59.50
9271;DHT22;4673;53.458;9.940;2024-02-04T15:53:32;7.50;60.20
9271;DHT22;4673;53.458;9.940;2024-02-04T15:55:58;7.50;61.40
9271;DHT22;4673;53.458;9.940;2024-02-04T15:58:25;7.40;62.10
9271;DHT22;4673;53.458;9.940;2024-02-04T16:00:53;7.40;62.50
9271;DHT22;4673;53.458;9.940;2024-02-04T16:03:20;7.40;63.30
9271;DHT22;4673;53.458;9.940;2024-02-04T16:05:46;7.30;63.60
9271;DHT22;4673;53.458;9.940;2024-02-04T16:08:12;7.30;63.90
9271;DHT22;4673;53.458;9.940;2024-02-04T16:10:38;7.20;64.50
9271;DHT22;4673;53.458;9.940;2024-02-04T16:13:07;7.20;65.20
9271;DHT22;4673;53.458;9.940;2024-02-04T16:15:37;7.20;65.70
9271;DHT22;4673;53.458;9.940;2024-02-04T16:18:08;7.10;66.40
9271;DHT22;4673;53.458;9.940;2024-02-04T16:20:34;7.10;66.90
9271;DHT22;4673;53.458;9.940;2024-02-04T16:23:04;7.00;67.20
9271;DHT22;4673;53.458;9.940;2024-02-04T16:25:30;7.10;68.00